sensor_id;sensor_type;location;lat;lon;timestamp;temperature;humidity
55369;DHT22;41247;49.736;8.752;2023-11-21T00:00:16;7.50;99.90
55369;DHT22;41247;49.736;8.752;2023-11-21T00:03:57;7.40;99.90
55369;DHT22;41247;49.736;8.752;2023-11-21T00:07:38;7.40;99.90
55369;DHT22;41247;49.736;8.752;2023-11-21T00:11:39;7.40;99.90
55369;DHT22;41247;49.736;8.752;2023-11-21T00:15:19;7.40;99.90
55369;DHT22;41247;49.736;8.752;2023-11-21T00:19:00;7.50;99.90
55369;DHT22;41247;49.736;8.752;2023-11-21T00:22:40;7.50;99.90
55369;DHT22;41247;49.736;8.752;2023-11-21T00:26:21;7.40;99.90
55369;DHT22;41247;49.736;8.752;2023-11-21T00:30:02;7.40;99.90
55369;DHT22;41247;49.736;8.752;2023-11-21T00:33:43;7.40;99.90
55369;DHT22;41247;49.736;8.752;2023-11-21T00:37:24;7.40;99.90
55369;DHT22;41247;49.736;8.752;2023-11-21T00:41:05;7.40;99.90
55369;DHT22;41247;49.736;8.752;2023-11-21T00:44:46;7.40;99.90
55369;DHT22;41247;49.736;8.752;2023-11-21T00:48:26;7.40;99.90
55369;DHT22;41247;49.736;8.752;2023-11-21T00:52:07;7.40;99.90
55369;DHT22;41247;49.736;8.752;2023-11-21T00:55:48;7.40;99.90
55369;DHT22;41247;49.736;8.752;2023-11-21T00:59:28;7.40;99.90
55369;DHT22;41247;49.736;8.752;2023-11-21T01:03:09;7.50;99.90
55369;DHT22;41247;49.736;8.752;2023-11-21T01:06:49;7.40;99.90
55369;DHT22;41247;49.736;8.752;2023-11-21T01:10:30;7.40;99.90
55369;DHT22;41247;49.736;8.752;2023-11-21T01:14:10;7.50;99.90
55369;DHT22;41247;49.736;8.752;2023-11-21T01:17:51;7.50;99.90
55369;DHT22;41247;49.736;8.752;2023-11-21T01:21:32;7.50;99.90
55369;DHT22;41247;49.736;8.752;2023-11-21T01:25:13;7.50;99.90
55369;DHT22;41247;49.736;8.752;2023-11-21T01:28:53;7.40;99.90
55369;DHT22;41247;49.736;8.752;2023-11-21T01:32:34;7.50;99.90
55369;DHT22;41247;49.736;8.752;2023-11-21T01:36:14;7.50;99.90
55369;DHT22;41247;49.736;8.752;2023-11-21T01:39:55;7.50;99.90
55369;DHT22;41247;49.736;8.752;2023-11-21T01:43:36;7.50;99.90
55369;DHT22;41247;49.736;8.752;2023-11-21T01:47:16;7.50;99.90
55369;DHT22;41247;49.736;8.752;2023-11-21T01:50:57;7.50;99.90
55369;DHT22;41247;49.736;8.752;2023-11-21T01:54:39;7.50;99.90
55369;DHT22;41247;49.736;8.752;2023-11-21T01:58:21;7.50;99.90
55369;DHT22;41247;49.736;8.752;2023-11-21T02:02:05;7.50;99.90
55369;DHT22;41247;49.736;8.752;2023-11-21T02:05:46;7.50;99.90
55369;DHT22;41247;49.736;8.752;2023-11-21T02:09:33;7.50;99.90
55369;DHT22;41247;49.736;8.752;2023-11-21T02:13:14;7.50;99.90
55369;DHT22;41247;49.736;8.752;2023-11-21T02:16:55;7.50;99.90
55369;DHT22;41247;49.736;8.752;2023-11-21T02:20:35;7.50;99.90
55369;DHT22;41247;49.736;8.752;2023-11-21T02:24:16;7.50;99.90
55369;DHT22;41247;49.736;8.752;2023-11-21T02:27:58;7.50;99.90
55369;DHT22;41247;49.736;8.752;2023-11-21T02:31:39;7.50;99.90
55369;DHT22;41247;49.736;8.752;2023-11-21T02:35:20;7.50;99.90
55369;DHT22;41247;49.736;8.752;2023-11-21T02:39:01;7.60;99.90
55369;DHT22;41247;49.736;8.752;2023-11-21T02:42:42;7.60;99.90
55369;DHT22;41247;49.736;8.752;2023-11-21T02:46:22;7.60;99.90
55369;DHT22;41247;49.736;8.752;2023-11-21T02:50:03;7.60;99.90
55369;DHT22;41247;49.736;8.752;2023-11-21T02:53:44;7.50;99.90
55369;DHT22;41247;49.736;8.752;2023-11-21T02:57:24;7.50;99.90
55369;DHT22;41247;49.736;8.752;2023-11-21T03:01:05;7.60;99.90
55369;DHT22;41247;49.736;8.752;2023-11-21T03:04:46;7.50;99.90
55369;DHT22;41247;49.736;8.752;2023-11-21T03:08:26;7.60;99.90
55369;DHT22;41247;49.736;8.752;2023-11-21T03:12:08;7.50;99.90
55369;DHT22;41247;49.736;8.752;2023-11-21T03:15:49;7.60;99.90
55369;DHT22;41247;49.736;8.752;2023-11-21T03:19:30;7.60;99.90
55369;DHT22;41247;49.736;8.752;2023-11-21T03:23:11;7.60;99.90
55369;DHT22;41247;49.736;8.752;2023-11-21T03:26:52;7.60;99.90
55369;DHT22;41247;49.736;8.752;2023-11-21T03:30:32;7.70;99.90
55369;DHT22;41247;49.736;8.752;2023-11-21T03:34:25;7.70;99.90
55369;DHT22;41247;49.736;8.752;2023-11-21T03:38:06;7.70;99.90
55369;DHT22;41247;49.736;8.752;2023-11-21T03:41:47;7.70;99.90
55369;DHT22;41247;49.736;8.752;2023-11-21T03:45:27;7.70;99.90
55369;DHT22;41247;49.736;8.752;2023-11-21T03:49:08;7.70;99.90
55369;DHT22;41247;49.736;8.752;2023-11-21T03:52:48;7.70;99.90
55369;DHT22;41247;49.736;8.752;2023-11-21T03:56:29;7.70;99.90
55369;DHT22;41247;49.736;8.752;2023-11-21T04:00:10;7.70;99.90
55369;DHT22;41247;49.736;8.752;2023-11-21T04:03:52;7.70;99.90
55369;DHT22;41247;49.736;8.752;2023-11-21T04:07:33;7.70;99.90
55369;DHT22;41247;49.736;8.752;2023-11-21T04:11:13;7.70;99.90
55369;DHT22;41247;49.736;8.752;2023-11-21T04:14:54;7.70;99.90
55369;DHT22;41247;49.736;8.752;2023-11-21T04:18:38;7.80;99.90
55369;DHT22;41247;49.736;8.752;2023-11-21T04:22:19;7.80;99.90
55369;DHT22;41247;49.736;8.752;2023-11-21T04:26:00;7.80;99.90
55369;DHT22;41247;49.736;8.752;2023-11-21T04:29:41;7.80;99.90
55369;DHT22;41247;49.736;8.752;2023-11-21T04:33:21;7.80;99.90
55369;DHT22;41247;49.736;8.752;2023-11-21T04:37:02;7.80;99.90
55369;DHT22;41247;49.736;8.752;2023-11-21T04:40:43;7.80;99.90
55369;DHT22;41247;49.736;8.752;2023-11-21T04:44:23;7.80;99.90
55369;DHT22;41247;49.736;8.752;2023-11-21T04:48:04;7.90;99.90
55369;DHT22;41247;49.736;8.752;2023-11-21T04:51:45;7.90;99.90
55369;DHT22;41247;49.736;8.752;2023-11-21T04:55:25;7.90;99.90
55369;DHT22;41247;49.736;8.752;2023-11-21T04:59:06;7.90;99.90
55369;DHT22;41247;49.736;8.752;2023-11-21T05:02:47;7.80;99.90
55369;DHT22;41247;49.736;8.752;2023-11-21T05:06:27;7.90;99.90
55369;DHT22;41247;49.736;8.752;2023-11-21T05:10:08;7.90;99.90
55369;DHT22;41247;49.736;8.752;2023-11-21T05:13:49;7.90;99.90
55369;DHT22;41247;49.736;8.752;2023-11-21T05:17:30;8.00;99.90
55369;DHT22;41247;49.736;8.752;2023-11-21T05:21:11;8.00;99.90
55369;DHT22;41247;49.736;8.752;2023-11-21T05:24:51;8.00;99.90
55369;DHT22;41247;49.736;8.752;2023-11-21T05:28:32;8.00;99.90
55369;DHT22;41247;49.736;8.752;2023-11-21T05:32:12;8.00;99.90
55369;DHT22;41247;49.736;8.752;2023-11-21T05:35:53;8.00;99.90
55369;DHT22;41247;49.736;8.752;2023-11-21T05:39:34;8.10;99.90
55369;DHT22;41247;49.736;8.752;2023-11-21T05:43:14;8.10;99.90
55369;DHT22;41247;49.736;8.752;2023-11-21T05:46:55;8.10;99.90
55369;DHT22;41247;49.736;8.752;2023-11-21T05:50:35;8.10;99.90
55369;DHT22;41247;49.736;8.752;2023-11-21T05:54:17;8.10;99.90
55369;DHT22;41247;49.736;8.752;2023-11-21T05:57:58;8.00;99.90
55369;DHT22;41247;49.736;8.752;2023-11-21T06:01:48;8.00;99.90
55369;DHT22;41247;49.736;8.752;2023-11-21T06:05:29;8.00;99.90
55369;DHT22;41247;49.736;8.752;2023-11-21T06:09:10;8.00;99.90
55369;DHT22;41247;49.736;8.752;2023-11-21T06:12:51;8.00;99.90
55369;DHT22;41247;49.736;8.752;2023-11-21T06:25:41;8.00;99.90
55369;DHT22;41247;49.736;8.752;2023-11-21T06:37:55;7.90;99.90
55369;DHT22;41247;49.736;8.752;2023-11-21T06:49:24;7.90;99.90
55369;DHT22;41247;49.736;8.752;2023-11-21T06:53:16;7.90;99.90
55369;DHT22;41247;49.736;8.752;2023-11-21T07:02:13;7.70;99.90
55369;DHT22;41247;49.736;8.752;2023-11-21T07:06:12;7.70;99.90
55369;DHT22;41247;49.736;8.752;2023-11-21T07:10:06;7.70;99.90
55369;DHT22;41247;49.736;8.752;2023-11-21T07:18:18;7.60;99.90
55369;DHT22;41247;49.736;8.752;2023-11-21T07:27:07;7.60;99.90
55369;DHT22;41247;49.736;8.752;2023-11-21T07:31:09;7.60;99.90
55369;DHT22;41247;49.736;8.752;2023-11-21T07:39:16;7.60;99.90
55369;DHT22;41247;49.736;8.752;2023-11-21T07:43:00;7.60;99.90
55369;DHT22;41247;49.736;8.752;2023-11-21T07:47:32;7.60;99.90
55369;DHT22;41247;49.736;8.752;2023-11-21T07:51:13;7.60;99.90
55369;DHT22;41247;49.736;8.752;2023-11-21T09:15:28;7.90;99.90
55369;DHT22;41247;49.736;8.752;2023-11-21T09:19:21;7.80;99.90
55369;DHT22;41247;49.736;8.752;2023-11-21T12:24:58;10.50;99.90
55369;DHT22;41247;49.736;8.752;2023-11-21T12:29:08;10.40;99.90
55369;DHT22;41247;49.736;8.752;2023-11-21T13:07:09;9.90;99.90
55369;DHT22;41247;49.736;8.752;2023-11-21T13:52:48;9.40;99.90
55369;DHT22;41247;49.736;8.752;2023-11-21T14:01:06;9.30;99.90
55369;DHT22;41247;49.736;8.752;2023-11-21T14:04:47;9.20;99.90
55369;DHT22;41247;49.736;8.752;2023-11-21T14:13:07;9.00;99.90
55369;DHT22;41247;49.736;8.752;2023-11-21T14:16:47;8.90;99.90
55369;DHT22;41247;49.736;8.752;2023-11-21T14:20:48;8.90;99.90
55369;DHT22;41247;49.736;8.752;2023-11-21T14:24:42;8.80;99.90
55369;DHT22;41247;49.736;8.752;2023-11-21T14:33:16;8.80;99.90
55369;DHT22;41247;49.736;8.752;2023-11-21T14:51:23;8.50;99.90
55369;DHT22;41247;49.736;8.752;2023-11-21T14:55:04;8.40;99.90
55369;DHT22;41247;49.736;8.752;2023-11-21T15:07:22;8.20;99.90
55369;DHT22;41247;49.736;8.752;2023-11-21T15:11:02;8.10;99.90
55369;DHT22;41247;49.736;8.752;2023-11-21T15:14:57;8.10;99.90
55369;DHT22;41247;49.736;8.752;2023-11-21T15:22:55;8.00;99.90
55369;DHT22;41247;49.736;8.752;2023-11-21T15:26:36;7.90;99.90
55369;DHT22;41247;49.736;8.752;2023-11-21T15:30:19;7.80;99.90
55369;DHT22;41247;49.736;8.752;2023-11-21T15:34:00;7.80;99.90
55369;DHT22;41247;49.736;8.752;2023-11-21T15:37:41;7.80;99.90
55369;DHT22;41247;49.736;8.752;2023-11-21T15:41:21;7.70;99.90
55369;DHT22;41247;49.736;8.752;2023-11-21T15:45:02;7.70;99.90
55369;DHT22;41247;49.736;8.752;2023-11-21T15:48:43;7.70;99.90
55369;DHT22;41247;49.736;8.752;2023-11-21T15:52:24;7.70;99.90
55369;DHT22;41247;49.736;8.752;2023-11-21T15:56:05;7.60;99.90
55369;DHT22;41247;49.736;8.752;2023-11-21T15:59:46;7.60;99.90
55369;DHT22;41247;49.736;8.752;2023-11-21T16:03:49;7.60;99.90
55369;DHT22;41247;49.736;8.752;2023-11-21T16:07:35;7.60;99.90
55369;DHT22;41247;49.736;8.752;2023-11-21T16:11:16;7.60;99.90
55369;DHT22;41247;49.736;8.752;2023-11-21T16:14:56;7.60;99.90
55369;DHT22;41247;49.736;8.752;2023-11-21T16:18:37;7.60;99.90
55369;DHT22;41247;49.736;8.752;2023-11-21T16:22:18;7.50;99.90
55369;DHT22;41247;49.736;8.752;2023-11-21T16:26:07;7.60;99.90
55369;DHT22;41247;49.736;8.752;2023-11-21T16:30:10;7.60;99.90
55369;DHT22;41247;49.736;8.752;2023-11-21T16:33:53;7.60;99.90
55369;DHT22;41247;49.736;8.752;2023-11-21T16:37:34;7.60;99.90
55369;DHT22;41247;49.736;8.752;2023-11-21T16:41:17;7.50;99.90
55369;DHT22;41247;49.736;8.752;2023-11-21T16:44:58;7.60;99.90
55369;DHT22;41247;49.736;8.752;2023-11-21T16:48:38;7.60;99.90
55369;DHT22;41247;49.736;8.752;2023-11-21T16:52:19;7.60;99.90
55369;DHT22;41247;49.736;8.752;2023-11-21T16:56:00;7.60;99.90
55369;DHT22;41247;49.736;8.752;2023-11-21T16:59:40;7.70;99.90
55369;DHT22;41247;49.736;8.752;2023-11-21T17:03:21;7.70;99.90
55369;DHT22;41247;49.736;8.752;2023-11-21T17:07:01;7.70;99.90
55369;DHT22;41247;49.736;8.752;2023-11-21T17:10:53;7.70;99.90
55369;DHT22;41247;49.736;8.752;2023-11-21T17:14:34;7.70;99.90
55369;DHT22;41247;49.736;8.752;2023-11-21T17:18:16;7.70;99.90
55369;DHT22;41247;49.736;8.752;2023-11-21T17:21:58;7.70;99.90
55369;DHT22;41247;49.736;8.752;2023-11-21T17:25:39;7.70;99.90
55369;DHT22;41247;49.736;8.752;2023-11-21T17:29:20;7.70;99.90
55369;DHT22;41247;49.736;8.752;2023-11-21T17:33:00;7.70;99.90
55369;DHT22;41247;49.736;8.752;2023-11-21T17:36:41;7.70;99.90
55369;DHT22;41247;49.736;8.752;2023-11-21T17:40:22;7.70;99.90
55369;DHT22;41247;49.736;8.752;2023-11-21T17:44:03;7.70;99.90
55369;DHT22;41247;49.736;8.752;2023-11-21T17:47:44;7.70;99.90
55369;DHT22;41247;49.736;8.752;2023-11-21T17:51:25;7.70;99.90
55369;DHT22;41247;49.736;8.752;2023-11-21T17:55:06;7.70;99.90
55369;DHT22;41247;49.736;8.752;2023-11-21T17:58:54;7.70;99.90
55369;DHT22;41247;49.736;8.752;2023-11-21T18:02:35;7.70;99.90
55369;DHT22;41247;49.736;8.752;2023-11-21T18:06:16;7.70;99.90
55369;DHT22;41247;49.736;8.752;2023-11-21T18:09:57;7.80;99.90
55369;DHT22;41247;49.736;8.752;2023-11-21T18:13:37;7.80;99.90
55369;DHT22;41247;49.736;8.752;2023-11-21T18:17:18;7.80;99.90
55369;DHT22;41247;49.736;8.752;2023-11-21T18:21:00;7.80;99.90
55369;DHT22;41247;49.736;8.752;2023-11-21T18:24:41;7.70;99.90
55369;DHT22;41247;49.736;8.752;2023-11-21T18:28:22;7.70;99.90
55369;DHT22;41247;49.736;8.752;2023-11-21T18:32:03;7.70;99.90
55369;DHT22;41247;49.736;8.752;2023-11-21T18:35:47;7.60;99.90
55369;DHT22;41247;49.736;8.752;2023-11-21T18:39:29;7.60;99.90
55369;DHT22;41247;49.736;8.752;2023-11-21T18:43:09;7.60;99.90
55369;DHT22;41247;49.736;8.752;2023-11-21T18:47:02;7.60;99.90
55369;DHT22;41247;49.736;8.752;2023-11-21T18:50:43;7.50;99.90
55369;DHT22;41247;49.736;8.752;2023-11-21T18:54:24;7.50;99.90
55369;DHT22;41247;49.736;8.752;2023-11-21T18:58:04;7.50;99.90
55369;DHT22;41247;49.736;8.752;2023-11-21T19:01:45;7.60;99.90
55369;DHT22;41247;49.736;8.752;2023-11-21T19:05:25;7.60;99.90
55369;DHT22;41247;49.736;8.752;2023-11-21T19:09:06;7.60;99.90
55369;DHT22;41247;49.736;8.752;2023-11-21T19:12:46;7.60;99.90
55369;DHT22;41247;49.736;8.752;2023-11-21T19:16:27;7.50;99.90
55369;DHT22;41247;49.736;8.752;2023-11-21T19:20:08;7.50;99.90
55369;DHT22;41247;49.736;8.752;2023-11-21T19:23:49;7.50;99.90
55369;DHT22;41247;49.736;8.752;2023-11-21T19:27:30;7.50;99.90
55369;DHT22;41247;49.736;8.752;2023-11-21T19:31:20;7.50;99.90
55369;DHT22;41247;49.736;8.752;2023-11-21T19:35:02;7.50;99.90
55369;DHT22;41247;49.736;8.752;2023-11-21T19:38:44;7.50;99.90
55369;DHT22;41247;49.736;8.752;2023-11-21T19:42:25;7.50;99.90
55369;DHT22;41247;49.736;8.752;2023-11-21T19:46:05;7.40;99.90
55369;DHT22;41247;49.736;8.752;2023-11-21T19:49:46;7.40;99.90
55369;DHT22;41247;49.736;8.752;2023-11-21T19:53:26;7.40;99.90
55369;DHT22;41247;49.736;8.752;2023-11-21T19:57:07;7.40;99.90
55369;DHT22;41247;49.736;8.752;2023-11-21T20:00:48;7.40;99.90
55369;DHT22;41247;49.736;8.752;2023-11-21T20:04:28;7.40;99.90
55369;DHT22;41247;49.736;8.752;2023-11-21T20:08:13;7.40;99.90
55369;DHT22;41247;49.736;8.752;2023-11-21T20:11:54;7.30;99.90
55369;DHT22;41247;49.736;8.752;2023-11-21T20:15:34;7.30;99.90
55369;DHT22;41247;49.736;8.752;2023-11-21T20:19:15;7.20;99.90
55369;DHT22;41247;49.736;8.752;2023-11-21T20:22:56;7.20;99.90
55369;DHT22;41247;49.736;8.752;2023-11-21T20:26:36;7.20;99.90
55369;DHT22;41247;49.736;8.752;2023-11-21T20:30:17;7.10;99.90
55369;DHT22;41247;49.736;8.752;2023-11-21T20:33:58;6.90;99.90
55369;DHT22;41247;49.736;8.752;2023-11-21T20:37:38;6.80;99.90
55369;DHT22;41247;49.736;8.752;2023-11-21T20:41:23;6.80;99.90
55369;DHT22;41247;49.736;8.752;2023-11-21T20:45:04;6.70;99.90
55369;DHT22;41247;49.736;8.752;2023-11-21T20:48:45;6.60;99.90
55369;DHT22;41247;49.736;8.752;2023-11-21T20:52:25;6.50;99.90
55369;DHT22;41247;49.736;8.752;2023-11-21T20:56:06;6.50;99.90
55369;DHT22;41247;49.736;8.752;2023-11-21T20:59:47;6.30;99.90
55369;DHT22;41247;49.736;8.752;2023-11-21T21:03:27;6.30;99.90
55369;DHT22;41247;49.736;8.752;2023-11-21T21:07:08;6.20;99.90
55369;DHT22;41247;49.736;8.752;2023-11-21T21:10:49;6.10;99.90
55369;DHT22;41247;49.736;8.752;2023-11-21T21:14:29;6.00;99.90
55369;DHT22;41247;49.736;8.752;2023-11-21T21:18:10;6.00;99.90
55369;DHT22;41247;49.736;8.752;2023-11-21T21:21:50;5.90;99.90
55369;DHT22;41247;49.736;8.752;2023-11-21T21:25:31;5.80;99.90
55369;DHT22;41247;49.736;8.752;2023-11-21T21:29:11;5.80;99.90
55369;DHT22;41247;49.736;8.752;2023-11-21T21:32:53;5.70;99.90
55369;DHT22;41247;49.736;8.752;2023-11-21T21:36:34;5.70;99.90
55369;DHT22;41247;49.736;8.752;2023-11-21T21:40:15;5.70;99.90
55369;DHT22;41247;49.736;8.752;2023-11-21T21:43:55;5.60;99.90
55369;DHT22;41247;49.736;8.752;2023-11-21T21:47:36;5.60;99.90
55369;DHT22;41247;49.736;8.752;2023-11-21T21:51:18;5.50;99.90
55369;DHT22;41247;49.736;8.752;2023-11-21T21:54:58;5.40;99.90
55369;DHT22;41247;49.736;8.752;2023-11-21T21:58:42;5.20;99.90
55369;DHT22;41247;49.736;8.752;2023-11-21T22:02:22;5.20;99.90
55369;DHT22;41247;49.736;8.752;2023-11-21T22:06:03;5.10;99.90
55369;DHT22;41247;49.736;8.752;2023-11-21T22:09:51;5.10;99.90
55369;DHT22;41247;49.736;8.752;2023-11-21T22:13:32;5.00;99.90
55369;DHT22;41247;49.736;8.752;2023-11-21T22:17:13;4.90;99.90
55369;DHT22;41247;49.736;8.752;2023-11-21T22:20:53;4.70;99.90
55369;DHT22;41247;49.736;8.752;2023-11-21T22:24:37;4.60;99.90
55369;DHT22;41247;49.736;8.752;2023-11-21T22:28:18;4.60;99.90
55369;DHT22;41247;49.736;8.752;2023-11-21T22:31:58;4.60;99.90
55369;DHT22;41247;49.736;8.752;2023-11-21T22:35:39;4.50;99.90
55369;DHT22;41247;49.736;8.752;2023-11-21T22:39:20;4.50;99.90
55369;DHT22;41247;49.736;8.752;2023-11-21T22:43:00;4.40;99.90
55369;DHT22;41247;49.736;8.752;2023-11-21T22:46:42;4.30;99.90
55369;DHT22;41247;49.736;8.752;2023-11-21T22:50:23;4.20;99.90
55369;DHT22;41247;49.736;8.752;2023-11-21T22:54:04;4.10;99.90
55369;DHT22;41247;49.736;8.752;2023-11-21T22:57:45;4.10;99.90
55369;DHT22;41247;49.736;8.752;2023-11-21T23:01:26;4.00;99.90
55369;DHT22;41247;49.736;8.752;2023-11-21T23:05:07;3.90;99.90
55369;DHT22;41247;49.736;8.752;2023-11-21T23:08:47;3.90;99.90
55369;DHT22;41247;49.736;8.752;2023-11-21T23:12:28;3.80;99.90
55369;DHT22;41247;49.736;8.752;2023-11-21T23:16:09;3.80;99.90
55369;DHT22;41247;49.736;8.752;2023-11-21T23:19:56;3.70;99.90
55369;DHT22;41247;49.736;8.752;2023-11-21T23:23:46;3.60;99.90
55369;DHT22;41247;49.736;8.752;2023-11-21T23:27:27;3.60;99.90
55369;DHT22;41247;49.736;8.752;2023-11-21T23:31:08;3.50;99.90
55369;DHT22;41247;49.736;8.752;2023-11-21T23:34:49;3.50;99.90
55369;DHT22;41247;49.736;8.752;2023-11-21T23:38:30;3.40;99.90
55369;DHT22;41247;49.736;8.752;2023-11-21T23:42:11;3.30;99.90
55369;DHT22;41247;49.736;8.752;2023-11-21T23:45:52;3.30;99.90
55369;DHT22;41247;49.736;8.752;2023-11-21T23:49:33;3.20;99.90
55369;DHT22;41247;49.736;8.752;2023-11-21T23:53:16;3.10;99.90
55369;DHT22;41247;49.736;8.752;2023-11-21T23:56:57;3.10;99.90
